createdAt,value
2023-04-01T00:01:05.782Z,8.50
2023-04-01T00:03:34.737Z,8.40
2023-04-01T00:06:02.647Z,8.40
2023-04-01T00:08:34.000Z,8.50
2023-04-01T00:11:01.180Z,8.40
2023-04-01T00:13:28.470Z,8.60
2023-04-01T00:15:57.537Z,8.40
2023-04-01T00:18:26.080Z,8.40
2023-04-01T00:20:53.920Z,8.40
2023-04-01T00:23:22.211Z,8.50
2023-04-01T00:25:54.878Z,8.40
2023-04-01T00:28:22.706Z,8.60
2023-04-01T00:30:51.188Z,8.40
2023-04-01T00:33:18.871Z,8.40
2023-04-01T00:35:46.540Z,8.40
2023-04-01T00:38:14.418Z,8.40
2023-04-01T00:40:45.865Z,8.50
2023-04-01T00:43:16.794Z,8.40
2023-04-01T00:45:47.967Z,8.60
2023-04-01T00:48:16.796Z,8.40
2023-04-01T00:50:53.611Z,8.70
2023-04-01T00:53:22.983Z,8.80
2023-04-01T00:56:18.291Z,8.90
2023-04-01T00:58:51.587Z,8.80
2023-04-01T01:01:21.774Z,8.80
2023-04-01T01:03:48.911Z,8.80
2023-04-01T01:06:46.909Z,8.80
2023-04-01T01:09:41.968Z,8.80
2023-04-01T01:12:59.102Z,8.90
2023-04-01T01:15:47.324Z,8.80
2023-04-01T01:18:39.763Z,8.80
2023-04-01T01:21:25.244Z,8.70
2023-04-01T01:24:10.551Z,8.50
2023-04-01T01:26:59.794Z,8.40
2023-04-01T01:29:30.208Z,8.80
2023-04-01T01:32:16.354Z,8.60
2023-04-01T01:35:15.873Z,8.40
2023-04-01T01:37:45.557Z,8.40
2023-04-01T01:40:14.514Z,8.40
2023-04-01T01:42:47.519Z,8.50
2023-04-01T01:45:19.102Z,8.50
2023-04-01T01:47:47.729Z,8.50
2023-04-01T01:50:23.964Z,8.40
2023-04-01T01:52:51.864Z,8.60
2023-04-01T01:55:31.503Z,8.70
2023-04-01T01:58:04.027Z,8.70
2023-04-01T02:00:31.913Z,8.70
2023-04-01T02:03:02.075Z,8.50
2023-04-01T02:05:32.316Z,8.40
2023-04-01T02:08:09.273Z,8.50
2023-04-01T02:10:38.675Z,8.40
2023-04-01T02:13:14.541Z,8.50
2023-04-01T02:15:49.991Z,8.40
2023-04-01T02:18:20.136Z,8.40
2023-04-01T02:20:47.723Z,8.50
2023-04-01T02:23:15.783Z,8.50
2023-04-01T02:25:45.392Z,8.60
2023-04-01T02:28:17.004Z,8.60
2023-04-01T02:30:48.387Z,8.70
2023-04-01T02:33:16.642Z,8.50
2023-04-01T02:35:44.290Z,8.60
2023-04-01T02:38:16.948Z,8.70
2023-04-01T02:40:51.118Z,8.80
2023-04-01T02:43:20.300Z,8.80
2023-04-01T02:45:47.944Z,8.70
2023-04-01T02:48:15.590Z,8.90
2023-04-01T02:50:43.075Z,8.70
2023-04-01T02:53:10.811Z,8.80
2023-04-01T02:55:48.025Z,8.70
2023-04-01T02:58:20.578Z,8.80
2023-04-01T03:00:47.868Z,8.80
2023-04-01T03:03:15.711Z,9.00
2023-04-01T03:05:43.590Z,8.70
2023-04-01T03:08:14.447Z,9.00
2023-04-01T03:10:42.216Z,8.90
2023-04-01T03:13:09.476Z,9.00
2023-04-01T03:15:38.846Z,9.10
2023-04-01T03:18:06.910Z,8.90
2023-04-01T03:20:34.472Z,9.10
2023-04-01T03:23:02.038Z,9.10
2023-04-01T03:25:32.178Z,9.20
2023-04-01T03:28:00.896Z,8.80
2023-04-01T03:30:32.725Z,9.00
2023-04-01T03:33:05.052Z,8.90
2023-04-01T03:35:33.236Z,8.90
2023-04-01T03:38:01.718Z,9.00
2023-04-01T03:40:29.077Z,9.30
2023-04-01T03:42:57.434Z,9.00
2023-04-01T03:45:33.773Z,8.80
2023-04-01T03:48:01.345Z,9.10
2023-04-01T03:50:30.478Z,9.00
2023-04-01T03:53:00.782Z,9.30
2023-04-01T03:55:28.152Z,9.10
2023-04-01T03:57:55.414Z,9.20
2023-04-01T04:00:25.560Z,9.20
2023-04-01T04:02:52.810Z,9.00
2023-04-01T04:05:20.314Z,9.10
2023-04-01T04:07:47.862Z,9.10
2023-04-01T04:10:15.641Z,9.20
2023-04-01T04:12:43.115Z,9.00
2023-04-01T04:15:11.376Z,8.90
2023-04-01T04:17:39.186Z,8.90
2023-04-01T04:20:06.886Z,9.10
2023-04-01T04:22:34.128Z,9.20
2023-04-01T04:25:01.497Z,9.10
2023-04-01T04:27:28.849Z,9.10
2023-04-01T04:29:56.804Z,8.90
2023-04-01T04:32:24.560Z,8.90
2023-04-01T04:35:02.396Z,9.10
2023-04-01T04:37:33.460Z,9.10
2023-04-01T04:40:15.677Z,9.30
2023-04-01T04:42:42.850Z,9.60
2023-04-01T04:45:10.833Z,9.40
2023-04-01T04:47:38.672Z,9.40
2023-04-01T04:50:07.118Z,9.20
2023-04-01T04:52:34.630Z,9.20
2023-04-01T04:55:01.789Z,9.00
2023-04-01T04:57:29.441Z,8.70
2023-04-01T04:59:57.083Z,8.80
2023-04-01T05:02:24.664Z,8.90
2023-04-01T05:04:52.073Z,8.80
2023-04-01T05:07:19.581Z,8.60
2023-04-01T05:09:48.377Z,8.70
2023-04-01T05:12:15.799Z,8.80
2023-04-01T05:14:46.521Z,8.70
2023-04-01T05:17:14.610Z,8.50
2023-04-01T05:19:41.993Z,8.40
2023-04-01T05:22:12.432Z,8.70
2023-04-01T05:24:39.629Z,8.70
2023-04-01T05:27:06.768Z,8.80
2023-04-01T05:29:34.422Z,8.70
2023-04-01T05:32:02.149Z,8.80
2023-04-01T05:34:29.711Z,8.50
2023-04-01T05:36:57.045Z,8.70
2023-04-01T05:39:24.715Z,8.60
2023-04-01T05:41:52.237Z,8.80
2023-04-01T05:44:19.402Z,8.60
2023-04-01T05:46:46.672Z,8.80
2023-04-01T05:49:13.817Z,8.60
2023-04-01T05:51:41.501Z,8.60
2023-04-01T05:54:08.799Z,8.80
2023-04-01T05:56:37.019Z,8.90
2023-04-01T05:59:04.386Z,8.70
2023-04-01T06:01:31.969Z,8.70
2023-04-01T06:03:59.521Z,8.80
2023-04-01T06:06:35.587Z,8.70
2023-04-01T06:09:19.309Z,9.00
2023-04-01T06:12:04.131Z,9.00
2023-04-01T06:14:59.724Z,9.10
2023-04-01T06:17:31.507Z,9.00
2023-04-01T06:20:34.938Z,9.10
2023-04-01T06:23:26.745Z,9.20
2023-04-01T06:26:03.056Z,9.00
2023-04-01T06:28:33.943Z,9.10
2023-04-01T06:31:25.951Z,9.50
2023-04-01T06:34:27.416Z,9.30
2023-04-01T06:37:28.728Z,9.50
2023-04-01T06:40:05.923Z,9.30
2023-04-01T06:42:40.600Z,9.30
2023-04-01T06:45:29.525Z,9.70
2023-04-01T06:48:18.012Z,9.60
2023-04-01T06:51:09.634Z,9.80
2023-04-01T06:54:05.249Z,9.80
2023-04-01T06:56:38.078Z,9.60
2023-04-01T06:59:08.336Z,9.70
2023-04-01T07:01:47.085Z,9.80
2023-04-01T07:04:14.157Z,9.80
2023-04-01T07:07:03.540Z,9.80
2023-04-01T07:09:41.732Z,9.90
2023-04-01T07:12:31.223Z,9.80
2023-04-01T07:15:02.982Z,9.90
2023-04-01T07:17:34.825Z,10.00
2023-04-01T07:20:18.705Z,10.00
2023-04-01T07:22:50.316Z,10.20
2023-04-01T07:25:43.200Z,10.30
2023-04-01T07:28:20.583Z,10.20
2023-04-01T07:31:01.645Z,10.00
2023-04-01T07:33:48.661Z,10.10
2023-04-01T07:36:30.348Z,10.20
2023-04-01T07:39:24.647Z,10.30
2023-04-01T07:42:27.493Z,10.20
2023-04-01T07:45:33.893Z,10.50
2023-04-01T07:48:34.465Z,10.30
2023-04-01T07:51:36.255Z,10.20
2023-04-01T07:54:06.510Z,10.20
2023-04-01T07:57:01.688Z,10.10
2023-04-01T07:59:36.254Z,10.40
2023-04-01T08:02:28.728Z,10.40
2023-04-01T08:05:27.212Z,10.60
2023-04-01T08:08:12.308Z,10.60
2023-04-01T08:10:58.978Z,10.60
2023-04-01T08:13:50.018Z,10.50
2023-04-01T08:16:36.682Z,10.50
2023-04-01T08:19:25.149Z,10.60
2023-04-01T08:21:59.760Z,10.80
2023-04-01T08:24:48.447Z,10.60
2023-04-01T08:27:35.612Z,10.60
2023-04-01T08:30:17.890Z,10.40
2023-04-01T08:33:01.078Z,10.50
2023-04-01T08:35:36.903Z,10.60
2023-04-01T08:38:16.945Z,10.80
2023-04-01T08:41:17.542Z,10.50
2023-04-01T08:44:22.235Z,10.50
2023-04-01T08:47:05.257Z,10.60
2023-04-01T08:49:53.576Z,10.50
2023-04-01T08:52:38.619Z,10.80
2023-04-01T08:55:30.037Z,10.60
2023-04-01T09:01:34.677Z,10.80
2023-04-01T09:04:20.507Z,10.70
2023-04-01T09:06:53.659Z,10.90
2023-04-01T09:09:21.472Z,10.70
2023-04-01T09:12:16.143Z,10.70
2023-04-01T09:15:13.403Z,10.60
2023-04-01T09:18:01.867Z,10.90
2023-04-01T09:20:40.714Z,10.90
2023-04-01T09:23:30.783Z,11.10
2023-04-01T09:26:13.996Z,11.10
2023-04-01T09:32:27.513Z,11.00
2023-04-01T09:35:15.901Z,11.30
2023-04-01T09:38:08.346Z,11.60
2023-04-01T09:40:50.972Z,11.70
2023-04-01T09:43:27.540Z,11.60
2023-04-01T09:46:16.078Z,11.50
2023-04-01T09:49:04.282Z,11.80
2023-04-01T09:51:38.167Z,11.80
2023-04-01T09:54:50.745Z,11.70
2023-04-01T09:57:43.327Z,11.50
2023-04-01T10:00:26.241Z,11.70
2023-04-01T10:03:16.901Z,11.60
2023-04-01T10:05:53.405Z,11.50
2023-04-01T10:08:41.658Z,11.40
2023-04-01T10:11:26.712Z,11.50
2023-04-01T10:14:38.330Z,11.30
2023-04-01T10:17:39.393Z,11.70
2023-04-01T10:20:38.317Z,11.60
2023-04-01T10:23:13.876Z,11.50
2023-04-01T10:26:15.876Z,11.30
2023-04-01T10:28:52.055Z,11.60
2023-04-01T10:31:39.992Z,11.20
2023-04-01T10:34:30.454Z,11.30
2023-04-01T10:37:30.388Z,11.40
2023-04-01T10:40:04.082Z,11.10
2023-04-01T10:43:04.567Z,10.90
2023-04-01T10:45:43.720Z,11.30
2023-04-01T10:48:42.056Z,11.30
2023-04-01T10:51:27.573Z,11.70
2023-04-01T10:54:24.202Z,11.70
2023-04-01T10:57:18.832Z,11.20
2023-04-01T11:00:46.170Z,11.50
2023-04-01T11:03:19.646Z,11.40
2023-04-01T11:06:02.524Z,11.30
2023-04-01T11:08:46.783Z,11.70
2023-04-01T11:11:51.582Z,11.40
2023-04-01T11:14:50.446Z,11.40
2023-04-01T11:17:34.468Z,11.70
2023-04-01T11:20:23.272Z,11.90
2023-04-01T11:23:05.280Z,11.70
2023-04-01T11:25:50.806Z,11.80
2023-04-01T11:28:25.096Z,11.90
2023-04-01T11:31:36.534Z,12.00
2023-04-01T11:34:09.471Z,11.90
2023-04-01T11:36:52.975Z,11.50
2023-04-01T11:39:44.459Z,11.50
2023-04-01T11:42:49.161Z,11.70
2023-04-01T11:45:35.684Z,11.90
2023-04-01T11:48:27.557Z,11.90
2023-04-01T11:51:16.775Z,12.10
2023-04-01T11:54:05.325Z,12.20
2023-04-01T11:56:51.103Z,12.20
2023-04-01T11:59:33.804Z,12.30
2023-04-01T12:02:38.996Z,12.20
2023-04-01T12:05:09.777Z,12.20
2023-04-01T12:07:54.035Z,11.90
2023-04-01T12:10:42.961Z,12.30
2023-04-01T12:13:16.584Z,12.10
2023-04-01T12:15:49.837Z,12.40
2023-04-01T12:18:39.581Z,12.10
2023-04-01T12:21:31.543Z,12.30
2023-04-01T12:24:17.875Z,12.00
2023-04-01T12:27:16.491Z,12.20
2023-04-01T12:30:23.607Z,12.50
2023-04-01T12:33:25.405Z,12.20
2023-04-01T12:36:36.411Z,12.40
2023-04-01T12:39:32.829Z,12.40
2023-04-01T12:42:09.001Z,12.70
2023-04-01T12:45:04.869Z,12.70
2023-04-01T12:47:55.580Z,12.60
2023-04-01T12:50:32.270Z,12.90
2023-04-01T12:53:20.850Z,12.90
2023-04-01T12:55:53.838Z,12.70
2023-04-01T12:58:46.622Z,12.60
2023-04-01T13:01:50.853Z,13.10
2023-04-01T13:04:39.585Z,13.20
2023-04-01T13:07:34.192Z,13.20
2023-04-01T13:10:35.653Z,13.30
2023-04-01T13:13:24.026Z,13.20
2023-04-01T13:15:59.716Z,13.70
2023-04-01T13:21:33.148Z,13.70
2023-04-01T13:24:24.915Z,13.70
2023-04-01T13:27:03.775Z,14.00
2023-04-01T13:29:42.687Z,14.20
2023-04-01T13:32:43.408Z,14.40
2023-04-01T13:35:17.658Z,14.90
2023-04-01T13:38:11.758Z,14.90
2023-04-01T13:41:03.614Z,14.90
2023-04-01T13:43:45.134Z,14.40
2023-04-01T13:46:27.617Z,14.20
2023-04-01T13:49:26.731Z,14.20
2023-04-01T13:52:27.757Z,14.10
2023-04-01T13:55:14.608Z,14.20
2023-04-01T13:57:56.158Z,14.20
2023-04-01T14:00:54.902Z,14.30
2023-04-01T14:03:40.546Z,14.80
2023-04-01T14:06:30.657Z,14.80
2023-04-01T14:09:26.254Z,14.90
2023-04-01T14:12:10.506Z,15.10
2023-04-01T14:15:08.674Z,15.30
2023-04-01T14:18:16.138Z,15.30
2023-04-01T14:20:53.253Z,15.70
2023-04-01T14:23:35.992Z,16.10
2023-04-01T14:26:20.270Z,16.30
2023-04-01T14:29:13.972Z,15.80
2023-04-01T14:31:54.510Z,15.40
2023-04-01T14:34:59.404Z,15.10
2023-04-01T14:37:44.829Z,14.80
2023-04-01T14:40:24.824Z,14.10
2023-04-01T14:42:59.348Z,14.00
2023-04-01T14:45:42.662Z,13.90
2023-04-01T14:48:25.497Z,13.80
2023-04-01T14:50:59.908Z,13.70
2023-04-01T14:53:36.262Z,13.80
2023-04-01T14:56:08.214Z,13.80
2023-04-01T14:58:48.796Z,13.60
2023-04-01T15:01:47.602Z,13.60
2023-04-01T15:04:36.925Z,13.50
2023-04-01T15:07:29.766Z,13.40
2023-04-01T15:10:39.456Z,13.60
2023-04-01T15:13:32.871Z,13.30
2023-04-01T15:16:52.980Z,13.70
2023-04-01T15:19:23.402Z,13.80
2023-04-01T15:22:24.904Z,14.10
2023-04-01T15:25:34.339Z,14.70
2023-04-01T15:28:08.227Z,14.70
2023-04-01T15:30:49.692Z,14.80
2023-04-01T15:33:56.119Z,14.80
2023-04-01T15:36:23.560Z,14.90
2023-04-01T15:38:54.649Z,15.40
2023-04-01T15:41:31.152Z,15.40
2023-04-01T15:43:58.981Z,15.50
2023-04-01T15:46:37.478Z,15.30
2023-04-01T15:49:16.916Z,15.40
2023-04-01T15:51:59.292Z,15.30
2023-04-01T15:54:54.204Z,15.00
2023-04-01T15:57:47.406Z,14.90
2023-04-01T16:00:51.139Z,14.40
2023-04-01T16:03:33.119Z,14.10
2023-04-01T16:06:22.580Z,14.20
2023-04-01T16:09:26.278Z,14.00
2023-04-01T16:12:14.991Z,14.10
2023-04-01T16:15:00.811Z,14.00
2023-04-01T16:17:45.016Z,13.90
2023-04-01T16:20:23.340Z,13.60
2023-04-01T16:23:00.137Z,13.40
2023-04-01T16:25:48.899Z,13.50
2023-04-01T16:28:55.025Z,13.40
2023-04-01T16:31:37.244Z,13.30
2023-04-01T16:34:20.095Z,13.20
2023-04-01T16:37:02.639Z,13.00
2023-04-01T16:40:03.811Z,12.80
2023-04-01T16:42:50.969Z,12.80
2023-04-01T16:45:41.568Z,12.60
2023-04-01T16:48:44.972Z,12.20
2023-04-01T16:51:18.390Z,12.10
2023-04-01T16:53:46.100Z,11.80
2023-04-01T16:56:23.365Z,11.70
2023-04-01T16:59:00.090Z,11.30
2023-04-01T17:01:32.508Z,11.30
2023-04-01T17:04:14.536Z,11.30
2023-04-01T17:06:56.430Z,11.10
2023-04-01T17:09:49.109Z,11.10
2023-04-01T17:12:39.857Z,10.90
2023-04-01T17:15:33.460Z,10.80
2023-04-01T17:18:40.743Z,11.10
2023-04-01T17:21:26.237Z,10.80
2023-04-01T17:24:05.830Z,10.60
2023-04-01T17:26:51.045Z,10.70
2023-04-01T17:29:45.965Z,10.70
2023-04-01T17:32:33.542Z,10.70
2023-04-01T17:35:15.666Z,10.60
2023-04-01T17:38:12.007Z,10.90
2023-04-01T17:40:53.650Z,10.70
2023-04-01T17:43:39.229Z,10.60
2023-04-01T17:46:21.051Z,10.70
2023-04-01T17:49:01.738Z,10.70
2023-04-01T17:51:40.319Z,10.70
2023-04-01T17:54:45.903Z,10.50
2023-04-01T17:57:45.778Z,10.50
2023-04-01T18:00:52.994Z,10.50
2023-04-01T18:03:24.265Z,10.50
2023-04-01T18:06:21.227Z,10.40
2023-04-01T18:09:15.491Z,10.20
2023-04-01T18:11:53.903Z,10.20
2023-04-01T18:14:36.484Z,10.20
2023-04-01T18:17:19.122Z,10.20
2023-04-01T18:19:58.192Z,10.20
2023-04-01T18:22:46.776Z,10.20
2023-04-01T18:25:42.076Z,10.20
2023-04-01T18:28:39.914Z,10.30
2023-04-01T18:31:16.598Z,10.30
2023-04-01T18:34:04.329Z,10.30
2023-04-01T18:36:43.297Z,10.30
2023-04-01T18:39:19.438Z,10.20
2023-04-01T18:42:01.516Z,10.20
2023-04-01T18:44:48.094Z,10.20
2023-04-01T18:47:39.140Z,10.10
2023-04-01T18:50:24.843Z,10.10
2023-04-01T18:53:15.168Z,10.20
2023-04-01T18:55:57.115Z,10.20
2023-04-01T18:58:30.788Z,10.30
2023-04-01T19:01:18.122Z,10.20
2023-04-01T19:04:24.666Z,10.10
2023-04-01T19:07:00.145Z,10.20
2023-04-01T19:09:46.772Z,9.90
2023-04-01T19:12:34.956Z,10.20
2023-04-01T19:15:22.464Z,10.10
2023-04-01T19:17:53.245Z,9.90
2023-04-01T19:20:35.047Z,10.00
2023-04-01T19:23:35.874Z,10.00
2023-04-01T19:26:07.870Z,9.90
2023-04-01T19:29:19.764Z,10.10
2023-04-01T19:31:54.177Z,9.90
2023-04-01T19:34:21.893Z,9.80
2023-04-01T19:37:00.863Z,9.70
2023-04-01T19:40:08.880Z,9.90
2023-04-01T19:42:45.578Z,9.80
2023-04-01T19:45:23.450Z,10.10
2023-04-01T19:48:07.468Z,10.00
2023-04-01T19:50:45.082Z,9.70
2023-04-01T19:53:30.925Z,9.90
2023-04-01T19:56:18.723Z,9.90
2023-04-01T19:58:55.349Z,10.10
2023-04-01T20:01:44.338Z,10.00
2023-04-01T20:04:31.484Z,9.90
2023-04-01T20:07:17.479Z,9.80
2023-04-01T20:10:11.669Z,9.60
2023-04-01T20:13:00.324Z,10.20
2023-04-01T20:15:46.247Z,9.90
2023-04-01T20:18:25.039Z,10.20
2023-04-01T20:21:07.743Z,10.00
2023-04-01T20:24:07.610Z,10.10
2023-04-01T20:26:41.879Z,9.70
2023-04-01T20:29:12.314Z,9.90
2023-04-01T20:31:57.319Z,10.10
2023-04-01T20:34:52.361Z,10.10
2023-04-01T20:37:39.555Z,9.70
2023-04-01T20:40:27.776Z,10.00
2023-04-01T20:43:03.949Z,9.90
2023-04-01T20:46:00.730Z,10.10
2023-04-01T20:48:40.581Z,9.70
2023-04-01T20:51:13.933Z,10.10
2023-04-01T20:53:51.934Z,9.80
2023-04-01T20:56:25.256Z,9.70
2023-04-01T20:59:16.078Z,9.60
2023-04-01T21:01:52.326Z,10.00
2023-04-01T21:04:32.956Z,9.80
2023-04-01T21:07:30.985Z,9.70
2023-04-01T21:10:32.348Z,9.80
2023-04-01T21:13:34.657Z,9.70
2023-04-01T21:16:26.048Z,9.70
2023-04-01T21:19:06.477Z,9.40
2023-04-01T21:21:34.239Z,9.70
2023-04-01T21:24:13.980Z,9.70
2023-04-01T21:27:11.113Z,9.70
2023-04-01T21:29:50.763Z,9.70
2023-04-01T21:32:33.628Z,9.30
2023-04-01T21:35:24.694Z,9.40
2023-04-01T21:38:09.278Z,9.30
2023-04-01T21:40:36.932Z,9.60
2023-04-01T21:43:22.286Z,9.40
2023-04-01T21:46:14.364Z,9.40
2023-04-01T21:48:46.403Z,9.30
2023-04-01T21:51:52.781Z,9.40
2023-04-01T21:54:33.335Z,9.30
2023-04-01T21:57:33.392Z,9.60
2023-04-01T22:00:19.334Z,9.70
2023-04-01T22:03:27.809Z,9.30
2023-04-01T22:06:12.279Z,9.60
2023-04-01T22:08:57.493Z,9.40
2023-04-01T22:11:33.752Z,9.30
2023-04-01T22:14:07.775Z,9.70
2023-04-01T22:16:57.608Z,9.20
2023-04-01T22:19:36.871Z,9.40
2023-04-01T22:22:28.734Z,9.40
2023-04-01T22:25:15.792Z,9.30
2023-04-01T22:27:54.498Z,9.60
2023-04-01T22:30:34.592Z,9.20
2023-04-01T22:33:31.630Z,9.20
2023-04-01T22:36:05.508Z,9.10
2023-04-01T22:39:08.725Z,9.30
2023-04-01T22:42:15.211Z,9.20
2023-04-01T22:44:45.938Z,9.30
2023-04-01T22:47:38.368Z,9.20
2023-04-01T22:50:18.333Z,9.30
2023-04-01T22:52:56.989Z,9.10
2023-04-01T22:55:26.775Z,9.30
2023-04-01T22:58:04.467Z,9.20
2023-04-01T23:00:37.866Z,9.20
2023-04-01T23:03:26.514Z,9.30
2023-04-01T23:05:57.758Z,9.10
2023-04-01T23:08:44.407Z,9.10
2023-04-01T23:11:23.146Z,9.30
2023-04-01T23:14:15.130Z,9.10
2023-04-01T23:16:47.373Z,9.30
2023-04-01T23:19:45.279Z,9.20
2023-04-01T23:22:58.036Z,9.30
2023-04-01T23:25:51.690Z,9.30
2023-04-01T23:28:31.290Z,9.10
2023-04-01T23:30:58.569Z,8.80
2023-04-01T23:33:34.223Z,8.90
2023-04-01T23:36:15.214Z,8.80
2023-04-01T23:38:44.366Z,8.90
2023-04-01T23:41:31.800Z,9.00
2023-04-01T23:44:13.696Z,9.10
2023-04-01T23:46:43.612Z,9.30
2023-04-01T23:49:18.978Z,9.00
2023-04-01T23:52:00.554Z,9.00
2023-04-01T23:54:38.736Z,9.10
2023-04-01T23:57:12.718Z,9.10
2023-04-01T23:59:46.651Z,9.40
